sensor_id;sensor_type;location;lat;lon;timestamp;pressure;altitude;pressure_sealevel;temperature;humidity
5283;BME280;15376;48.540;9.268;2023-05-19T00:00:45;97935.63;;;12.06;88.87
5283;BME280;15376;48.540;9.268;2023-05-19T00:03:10;97942.59;;;12.07;88.90
5283;BME280;15376;48.540;9.268;2023-05-19T00:05:38;97941.31;;;12.03;90.42
5283;BME280;15376;48.540;9.268;2023-05-19T00:08:06;97942.59;;;11.92;92.95
5283;BME280;15376;48.540;9.268;2023-05-19T00:10:33;97927.22;;;11.80;93.12
5283;BME280;15376;48.540;9.268;2023-05-19T00:12:58;97946.88;;;11.79;94.20
5283;BME280;15376;48.540;9.268;2023-05-19T00:15:24;97944.06;;;11.72;95.02
5283;BME280;15376;48.540;9.268;2023-05-19T00:17:49;97935.31;;;11.63;95.63
5283;BME280;15376;48.540;9.268;2023-05-19T00:20:16;97935.66;;;11.60;96.73
5283;BME280;15376;48.540;9.268;2023-05-19T00:22:41;97925.03;;;11.60;96.17
5283;BME280;15376;48.540;9.268;2023-05-19T00:25:09;97936.31;;;11.62;95.94
5283;BME280;15376;48.540;9.268;2023-05-19T00:27:34;97931.00;;;11.62;95.98
5283;BME280;15376;48.540;9.268;2023-05-19T00:30:00;97926.22;;;11.58;96.78
5283;BME280;15376;48.540;9.268;2023-05-19T00:32:25;97926.41;;;11.56;95.36
5283;BME280;15376;48.540;9.268;2023-05-19T00:34:50;97935.31;;;11.63;95.27
5283;BME280;15376;48.540;9.268;2023-05-19T00:37:16;97924.56;;;11.57;95.38
5283;BME280;15376;48.540;9.268;2023-05-19T00:39:42;97928.81;;;11.66;95.16
5283;BME280;15376;48.540;9.268;2023-05-19T00:42:08;97921.91;;;11.80;92.73
5283;BME280;15376;48.540;9.268;2023-05-19T00:44:36;97924.56;;;11.80;92.52
5283;BME280;15376;48.540;9.268;2023-05-19T00:47:04;97918.91;;;11.83;91.57
5283;BME280;15376;48.540;9.268;2023-05-19T00:49:29;97936.97;;;11.87;91.34
5283;BME280;15376;48.540;9.268;2023-05-19T00:51:54;97910.56;;;11.86;90.10
5283;BME280;15376;48.540;9.268;2023-05-19T00:54:20;97915.34;;;11.90;90.01
5283;BME280;15376;48.540;9.268;2023-05-19T00:56:46;97924.06;;;11.99;89.67
5283;BME280;15376;48.540;9.268;2023-05-19T00:59:11;97918.75;;;11.99;89.45
5283;BME280;15376;48.540;9.268;2023-05-19T01:01:37;97915.44;;;11.97;88.67
5283;BME280;15376;48.540;9.268;2023-05-19T01:04:03;97900.72;;;11.86;89.33
5283;BME280;15376;48.540;9.268;2023-05-19T01:06:29;97909.84;;;11.92;89.32
5283;BME280;15376;48.540;9.268;2023-05-19T01:08:54;97898.53;;;11.90;89.33
5283;BME280;15376;48.540;9.268;2023-05-19T01:11:21;97903.69;;;11.91;88.92
5283;BME280;15376;48.540;9.268;2023-05-19T01:13:47;97898.06;;;11.86;88.95
5283;BME280;15376;48.540;9.268;2023-05-19T01:30:43;97913.84;;;11.88;88.54
5283;BME280;15376;48.540;9.268;2023-05-19T01:33:11;97914.41;;;11.83;88.82
5283;BME280;15376;48.540;9.268;2023-05-19T01:35:40;97910.72;;;11.84;89.10
5283;BME280;15376;48.540;9.268;2023-05-19T01:38:08;97917.59;;;11.79;89.37
5283;BME280;15376;48.540;9.268;2023-05-19T01:40:36;97905.97;;;11.72;89.32
5283;BME280;15376;48.540;9.268;2023-05-19T01:43:02;97927.22;;;11.80;89.55
5283;BME280;15376;48.540;9.268;2023-05-19T01:45:30;97931.91;;;11.78;89.48
5283;BME280;15376;48.540;9.268;2023-05-19T01:47:59;97926.25;;;11.73;90.16
5283;BME280;15376;48.540;9.268;2023-05-19T01:50:25;97927.91;;;11.74;90.38
5283;BME280;15376;48.540;9.268;2023-05-19T01:52:51;97917.63;;;11.70;90.80
5283;BME280;15376;48.540;9.268;2023-05-19T01:55:16;97918.81;;;11.68;90.56
5283;BME280;15376;48.540;9.268;2023-05-19T02:00:41;97913.66;;;11.66;91.35
5283;BME280;15376;48.540;9.268;2023-05-19T02:03:29;97908.81;;;11.70;90.85
5283;BME280;15376;48.540;9.268;2023-05-19T02:06:29;97912.00;;;11.65;90.08
5283;BME280;15376;48.540;9.268;2023-05-19T02:09:02;97912.84;;;11.66;90.52
5283;BME280;15376;48.540;9.268;2023-05-19T02:11:36;97908.88;;;11.62;90.38
5283;BME280;15376;48.540;9.268;2023-05-19T02:14:14;97903.31;;;11.57;90.37
5283;BME280;15376;48.540;9.268;2023-05-19T02:16:44;97906.59;;;11.59;90.09
5283;BME280;15376;48.540;9.268;2023-05-19T02:19:26;97907.63;;;11.58;90.45
5283;BME280;15376;48.540;9.268;2023-05-19T02:21:52;97915.94;;;11.55;90.55
5283;BME280;15376;48.540;9.268;2023-05-19T02:24:18;97894.63;;;11.40;90.59
5283;BME280;15376;48.540;9.268;2023-05-19T02:26:44;97911.81;;;11.52;90.13
5283;BME280;15376;48.540;9.268;2023-05-19T02:29:10;97914.47;;;11.52;90.37
5283;BME280;15376;48.540;9.268;2023-05-19T02:31:35;97905.53;;;11.45;90.65
5283;BME280;15376;48.540;9.268;2023-05-19T02:34:01;97897.81;;;11.35;90.87
5283;BME280;15376;48.540;9.268;2023-05-19T02:36:26;97889.34;;;11.32;91.07
5283;BME280;15376;48.540;9.268;2023-05-19T02:38:52;97903.75;;;11.38;90.74
5283;BME280;15376;48.540;9.268;2023-05-19T02:41:17;97902.59;;;11.40;90.50
5283;BME280;15376;48.540;9.268;2023-05-19T02:43:43;97892.94;;;11.39;90.27
5283;BME280;15376;48.540;9.268;2023-05-19T02:46:08;97899.28;;;11.38;90.04
5283;BME280;15376;48.540;9.268;2023-05-19T02:48:34;97893.84;;;11.31;90.44
5283;BME280;15376;48.540;9.268;2023-05-19T02:50:59;97895.31;;;11.34;90.21
5283;BME280;15376;48.540;9.268;2023-05-19T02:53:24;97878.28;;;11.20;90.63
5283;BME280;15376;48.540;9.268;2023-05-19T02:55:50;97902.34;;;11.27;91.41
5283;BME280;15376;48.540;9.268;2023-05-19T02:58:15;97893.66;;;11.33;90.34
5283;BME280;15376;48.540;9.268;2023-05-19T03:00:40;97889.88;;;11.27;90.20
5283;BME280;15376;48.540;9.268;2023-05-19T03:03:08;97899.16;;;11.31;90.58
5283;BME280;15376;48.540;9.268;2023-05-19T03:05:34;97895.66;;;11.31;90.35
5283;BME280;15376;48.540;9.268;2023-05-19T03:08:00;97896.50;;;11.31;90.49
5283;BME280;15376;48.540;9.268;2023-05-19T03:10:25;97899.03;;;11.25;91.36
5283;BME280;15376;48.540;9.268;2023-05-19T03:12:50;97889.47;;;11.16;92.25
5283;BME280;15376;48.540;9.268;2023-05-19T03:15:16;97879.56;;;11.10;91.77
5283;BME280;15376;48.540;9.268;2023-05-19T03:17:42;97895.91;;;11.21;91.95
5283;BME280;15376;48.540;9.268;2023-05-19T03:20:08;97898.94;;;11.18;92.38
5283;BME280;15376;48.540;9.268;2023-05-19T03:22:34;97894.25;;;11.20;92.29
5283;BME280;15376;48.540;9.268;2023-05-19T03:25:00;97884.50;;;11.13;92.41
5283;BME280;15376;48.540;9.268;2023-05-19T03:27:25;97904.69;;;11.22;91.79
5283;BME280;15376;48.540;9.268;2023-05-19T03:29:50;97893.97;;;11.15;91.65
5283;BME280;15376;48.540;9.268;2023-05-19T03:32:17;97894.44;;;11.19;91.36
5283;BME280;15376;48.540;9.268;2023-05-19T03:34:43;97895.28;;;11.19;91.46
5283;BME280;15376;48.540;9.268;2023-05-19T03:37:08;97897.19;;;11.25;91.75
5283;BME280;15376;48.540;9.268;2023-05-19T03:39:35;97901.88;;;11.23;91.52
5283;BME280;15376;48.540;9.268;2023-05-19T03:42:00;97899.38;;;11.22;91.71
5283;BME280;15376;48.540;9.268;2023-05-19T03:44:25;97903.03;;;11.21;91.42
5283;BME280;15376;48.540;9.268;2023-05-19T03:46:51;97905.09;;;11.19;91.98
5283;BME280;15376;48.540;9.268;2023-05-19T03:49:16;97881.06;;;11.04;92.07
5283;BME280;15376;48.540;9.268;2023-05-19T03:51:41;97902.78;;;11.16;91.91
5283;BME280;15376;48.540;9.268;2023-05-19T03:54:07;97895.16;;;11.13;92.39
5283;BME280;15376;48.540;9.268;2023-05-19T03:56:32;97892.66;;;11.11;92.70
5283;BME280;15376;48.540;9.268;2023-05-19T03:58:58;97858.88;;;10.97;92.30
5283;BME280;15376;48.540;9.268;2023-05-19T04:01:23;97888.19;;;11.12;92.17
5283;BME280;15376;48.540;9.268;2023-05-19T04:03:48;97900.34;;;11.29;91.45
5283;BME280;15376;48.540;9.268;2023-05-19T04:06:14;97895.38;;;11.26;91.72
5283;BME280;15376;48.540;9.268;2023-05-19T04:08:39;97900.69;;;11.26;92.04
5283;BME280;15376;48.540;9.268;2023-05-19T04:11:05;97902.44;;;11.19;92.17
5283;BME280;15376;48.540;9.268;2023-05-19T04:13:32;97900.69;;;11.26;92.49
5283;BME280;15376;48.540;9.268;2023-05-19T04:15:57;97902.00;;;11.30;91.81
5283;BME280;15376;48.540;9.268;2023-05-19T04:18:23;97901.88;;;11.23;93.88
5283;BME280;15376;48.540;9.268;2023-05-19T04:20:48;97898.81;;;11.12;95.62
5283;BME280;15376;48.540;9.268;2023-05-19T04:23:14;97888.88;;;11.06;95.37
5283;BME280;15376;48.540;9.268;2023-05-19T04:25:39;97900.47;;;11.13;94.35
5283;BME280;15376;48.540;9.268;2023-05-19T04:28:05;97906.47;;;11.29;93.34
5283;BME280;15376;48.540;9.268;2023-05-19T04:30:31;97907.31;;;11.30;92.99
5283;BME280;15376;48.540;9.268;2023-05-19T04:32:58;97914.09;;;11.32;92.71
5283;BME280;15376;48.540;9.268;2023-05-19T04:35:25;97897.97;;;11.34;93.24
5283;BME280;15376;48.540;9.268;2023-05-19T04:37:51;97888.53;;;11.31;92.88
5283;BME280;15376;48.540;9.268;2023-05-19T04:40:18;97891.13;;;11.40;93.39
5283;BME280;15376;48.540;9.268;2023-05-19T04:42:45;97894.56;;;11.48;92.60
5283;BME280;15376;48.540;9.268;2023-05-19T04:45:10;97901.88;;;11.46;92.48
5283;BME280;15376;48.540;9.268;2023-05-19T04:47:39;97901.91;;;11.61;92.20
5283;BME280;15376;48.540;9.268;2023-05-19T04:50:06;97885.91;;;11.46;92.07
5283;BME280;15376;48.540;9.268;2023-05-19T04:52:32;97905.50;;;11.68;92.31
5283;BME280;15376;48.540;9.268;2023-05-19T04:54:57;97902.28;;;11.81;92.27
5283;BME280;15376;48.540;9.268;2023-05-19T04:57:23;97895.94;;;11.82;92.06
5283;BME280;15376;48.540;9.268;2023-05-19T04:59:48;97896.06;;;11.88;91.26
5283;BME280;15376;48.540;9.268;2023-05-19T05:02:14;97881.16;;;11.79;89.84
5283;BME280;15376;48.540;9.268;2023-05-19T05:04:40;97891.00;;;11.79;91.38
5283;BME280;15376;48.540;9.268;2023-05-19T05:07:08;97901.13;;;11.98;91.14
5283;BME280;15376;48.540;9.268;2023-05-19T05:09:33;97900.72;;;12.01;89.47
5283;BME280;15376;48.540;9.268;2023-05-19T05:12:00;97903.03;;;12.04;90.13
5283;BME280;15376;48.540;9.268;2023-05-19T05:14:26;97887.72;;;11.91;90.11
5283;BME280;15376;48.540;9.268;2023-05-19T05:16:51;97915.25;;;12.13;89.81
5283;BME280;15376;48.540;9.268;2023-05-19T05:19:17;97892.03;;;12.07;89.43
5283;BME280;15376;48.540;9.268;2023-05-19T05:21:43;97907.34;;;12.05;91.77
5283;BME280;15376;48.540;9.268;2023-05-19T05:24:09;97914.69;;;12.03;93.72
5283;BME280;15376;48.540;9.268;2023-05-19T05:26:35;97890.38;;;11.91;94.81
5283;BME280;15376;48.540;9.268;2023-05-19T05:29:01;97886.50;;;11.79;95.40
5283;BME280;15376;48.540;9.268;2023-05-19T05:31:27;97896.59;;;11.84;96.22
5283;BME280;15376;48.540;9.268;2023-05-19T05:33:52;97896.94;;;11.81;97.18
5283;BME280;15376;48.540;9.268;2023-05-19T05:36:18;97909.53;;;11.87;97.07
5283;BME280;15376;48.540;9.268;2023-05-19T05:38:43;97895.13;;;11.81;97.35
5283;BME280;15376;48.540;9.268;2023-05-19T05:41:08;97886.06;;;11.90;96.95
5283;BME280;15376;48.540;9.268;2023-05-19T05:43:34;97892.50;;;11.96;96.24
5283;BME280;15376;48.540;9.268;2023-05-19T05:45:59;97890.47;;;12.13;96.59
5283;BME280;15376;48.540;9.268;2023-05-19T05:48:25;97906.47;;;12.27;96.61
5283;BME280;15376;48.540;9.268;2023-05-19T05:50:51;97904.09;;;12.32;95.23
5283;BME280;15376;48.540;9.268;2023-05-19T05:53:18;97912.34;;;12.38;95.11
5283;BME280;15376;48.540;9.268;2023-05-19T05:55:48;97911.53;;;12.37;94.15
5283;BME280;15376;48.540;9.268;2023-05-19T05:58:13;97906.94;;;12.31;93.67
5283;BME280;15376;48.540;9.268;2023-05-19T06:00:40;97907.66;;;12.25;94.97
5283;BME280;15376;48.540;9.268;2023-05-19T06:03:09;97913.44;;;12.28;95.38
5283;BME280;15376;48.540;9.268;2023-05-19T06:05:36;97914.44;;;12.42;94.92
5283;BME280;15376;48.540;9.268;2023-05-19T06:08:02;97906.38;;;12.35;94.63
5283;BME280;15376;48.540;9.268;2023-05-19T06:10:27;97894.72;;;12.22;94.77
5283;BME280;15376;48.540;9.268;2023-05-19T06:12:53;97908.75;;;12.30;94.53
5283;BME280;15376;48.540;9.268;2023-05-19T06:15:20;97907.09;;;12.44;95.48
5283;BME280;15376;48.540;9.268;2023-05-19T06:17:45;97892.50;;;12.55;94.14
5283;BME280;15376;48.540;9.268;2023-05-19T06:20:11;97901.81;;;12.80;90.05
5283;BME280;15376;48.540;9.268;2023-05-19T06:22:37;97906.56;;;12.99;88.02
5283;BME280;15376;48.540;9.268;2023-05-19T06:25:05;97900.97;;;12.80;89.56
5283;BME280;15376;48.540;9.268;2023-05-19T06:27:35;97898.66;;;12.91;87.95
5283;BME280;15376;48.540;9.268;2023-05-19T06:30:01;97912.16;;;13.05;86.62
5283;BME280;15376;48.540;9.268;2023-05-19T06:32:26;97909.38;;;13.13;88.00
5283;BME280;15376;48.540;9.268;2023-05-19T06:34:53;97903.56;;;13.24;86.81
5283;BME280;15376;48.540;9.268;2023-05-19T06:37:22;97897.34;;;13.38;84.28
5283;BME280;15376;48.540;9.268;2023-05-19T06:39:52;97907.19;;;13.38;83.70
5283;BME280;15376;48.540;9.268;2023-05-19T06:42:18;97913.84;;;13.27;85.00
5283;BME280;15376;48.540;9.268;2023-05-19T06:44:49;97901.03;;;13.16;85.25
5283;BME280;15376;48.540;9.268;2023-05-19T06:47:16;97907.53;;;13.13;86.83
5283;BME280;15376;48.540;9.268;2023-05-19T06:49:41;97892.19;;;13.15;86.59
5283;BME280;15376;48.540;9.268;2023-05-19T06:52:07;97913.38;;;13.38;86.44
5283;BME280;15376;48.540;9.268;2023-05-19T06:54:32;97903.50;;;13.39;86.74
5283;BME280;15376;48.540;9.268;2023-05-19T06:56:57;97908.81;;;13.53;83.32
5283;BME280;15376;48.540;9.268;2023-05-19T06:59:23;97909.22;;;13.35;83.40
5283;BME280;15376;48.540;9.268;2023-05-19T07:01:48;97916.41;;;13.35;83.56
5283;BME280;15376;48.540;9.268;2023-05-19T07:04:14;97916.84;;;13.39;83.27
5283;BME280;15376;48.540;9.268;2023-05-19T07:06:39;97911.81;;;13.29;82.95
5283;BME280;15376;48.540;9.268;2023-05-19T07:09:04;97903.47;;;13.53;83.65
5283;BME280;15376;48.540;9.268;2023-05-19T07:11:30;97904.38;;;13.67;83.83
5283;BME280;15376;48.540;9.268;2023-05-19T07:13:55;97912.16;;;13.41;84.43
5283;BME280;15376;48.540;9.268;2023-05-19T07:16:21;97912.41;;;13.46;83.91
5283;BME280;15376;48.540;9.268;2023-05-19T07:18:46;97906.50;;;13.29;83.77
5283;BME280;15376;48.540;9.268;2023-05-19T07:21:12;97903.38;;;13.25;84.33
5283;BME280;15376;48.540;9.268;2023-05-19T07:23:37;97890.59;;;13.21;85.75
5283;BME280;15376;48.540;9.268;2023-05-19T07:26:02;97901.88;;;13.01;86.58
5283;BME280;15376;48.540;9.268;2023-05-19T07:28:28;97898.38;;;13.16;86.26
5283;BME280;15376;48.540;9.268;2023-05-19T07:30:53;97882.75;;;12.98;86.28
5283;BME280;15376;48.540;9.268;2023-05-19T07:33:18;97905.78;;;13.20;86.05
5283;BME280;15376;48.540;9.268;2023-05-19T07:35:44;97905.06;;;13.12;87.07
5283;BME280;15376;48.540;9.268;2023-05-19T07:38:10;97903.59;;;13.45;86.66
5283;BME280;15376;48.540;9.268;2023-05-19T07:40:46;97901.44;;;13.55;85.57
5283;BME280;15376;48.540;9.268;2023-05-19T07:43:11;97890.78;;;13.62;83.97
5283;BME280;15376;48.540;9.268;2023-05-19T07:45:37;97881.41;;;13.45;83.38
5283;BME280;15376;48.540;9.268;2023-05-19T07:48:02;97900.09;;;13.45;85.67
5283;BME280;15376;48.540;9.268;2023-05-19T07:50:28;97904.28;;;13.32;86.15
5283;BME280;15376;48.540;9.268;2023-05-19T07:52:53;97907.25;;;13.65;85.96
5283;BME280;15376;48.540;9.268;2023-05-19T07:55:19;97900.41;;;13.56;86.58
5283;BME280;15376;48.540;9.268;2023-05-19T07:57:48;97905.81;;;13.42;86.78
5283;BME280;15376;48.540;9.268;2023-05-19T08:00:14;97899.41;;;13.57;86.97
5283;BME280;15376;48.540;9.268;2023-05-19T08:02:39;97909.66;;;13.60;87.31
5283;BME280;15376;48.540;9.268;2023-05-19T08:05:05;97900.56;;;13.76;86.43
5283;BME280;15376;48.540;9.268;2023-05-19T08:07:31;97889.75;;;13.56;86.13
5283;BME280;15376;48.540;9.268;2023-05-19T08:09:57;97887.19;;;13.48;86.18
5283;BME280;15376;48.540;9.268;2023-05-19T08:12:22;97895.84;;;13.50;85.20
5283;BME280;15376;48.540;9.268;2023-05-19T08:14:47;97890.78;;;13.62;84.86
5283;BME280;15376;48.540;9.268;2023-05-19T08:17:13;97889.75;;;13.56;86.56
5283;BME280;15376;48.540;9.268;2023-05-19T08:19:38;97869.66;;;13.39;86.34
5283;BME280;15376;48.540;9.268;2023-05-19T08:22:03;97863.81;;;13.29;87.85
5283;BME280;15376;48.540;9.268;2023-05-19T08:24:29;97874.63;;;13.42;88.55
5283;BME280;15376;48.540;9.268;2023-05-19T08:26:54;97874.38;;;13.58;88.40
5283;BME280;15376;48.540;9.268;2023-05-19T08:29:20;97878.47;;;13.61;87.43
5283;BME280;15376;48.540;9.268;2023-05-19T08:31:45;97884.91;;;13.45;87.88
5283;BME280;15376;48.540;9.268;2023-05-19T08:34:10;97874.63;;;13.42;88.10
5283;BME280;15376;48.540;9.268;2023-05-19T08:36:36;97878.69;;;13.38;88.38
5283;BME280;15376;48.540;9.268;2023-05-19T08:39:01;97874.88;;;13.47;88.26
5283;BME280;15376;48.540;9.268;2023-05-19T08:41:27;97873.34;;;13.38;87.99
5283;BME280;15376;48.540;9.268;2023-05-19T08:43:53;97873.22;;;13.25;88.71
5283;BME280;15376;48.540;9.268;2023-05-19T08:46:23;97873.38;;;13.17;89.59
5283;BME280;15376;48.540;9.268;2023-05-19T08:48:53;97867.25;;;13.23;90.04
5283;BME280;15376;48.540;9.268;2023-05-19T08:51:32;97862.81;;;13.30;88.73
5283;BME280;15376;48.540;9.268;2023-05-19T08:54:15;97879.31;;;13.40;89.48
5283;BME280;15376;48.540;9.268;2023-05-19T08:56:43;97871.88;;;13.57;88.37
5283;BME280;15376;48.540;9.268;2023-05-19T08:59:09;97859.84;;;13.67;87.57
5283;BME280;15376;48.540;9.268;2023-05-19T09:01:36;97869.13;;;13.72;86.95
5283;BME280;15376;48.540;9.268;2023-05-19T09:04:02;97850.88;;;13.47;87.31
5283;BME280;15376;48.540;9.268;2023-05-19T09:06:27;97868.88;;;13.66;87.00
5283;BME280;15376;48.540;9.268;2023-05-19T09:08:56;97854.34;;;13.48;87.48
5283;BME280;15376;48.540;9.268;2023-05-19T09:11:21;97860.50;;;13.27;87.86
5283;BME280;15376;48.540;9.268;2023-05-19T09:13:47;97864.63;;;13.29;88.19
5283;BME280;15376;48.540;9.268;2023-05-19T09:16:13;97865.97;;;13.40;88.63
5283;BME280;15376;48.540;9.268;2023-05-19T09:18:39;97850.41;;;13.44;87.18
5283;BME280;15376;48.540;9.268;2023-05-19T09:21:07;97867.69;;;13.48;85.82
5283;BME280;15376;48.540;9.268;2023-05-19T09:23:35;97866.56;;;13.57;86.04
5283;BME280;15376;48.540;9.268;2023-05-19T09:26:02;97873.59;;;13.43;87.19
5283;BME280;15376;48.540;9.268;2023-05-19T09:28:30;97865.91;;;13.33;87.02
5283;BME280;15376;48.540;9.268;2023-05-19T09:31:08;97823.34;;;13.04;86.52
5283;BME280;15376;48.540;9.268;2023-05-19T09:33:39;97863.94;;;13.21;87.54
5283;BME280;15376;48.540;9.268;2023-05-19T09:36:06;97852.13;;;13.09;88.46
5283;BME280;15376;48.540;9.268;2023-05-19T09:38:38;97865.16;;;13.18;88.41
5283;BME280;15376;48.540;9.268;2023-05-19T09:41:04;97864.94;;;13.20;89.33
5283;BME280;15376;48.540;9.268;2023-05-19T09:43:31;97864.72;;;13.36;88.87
5283;BME280;15376;48.540;9.268;2023-05-19T09:46:09;97863.75;;;13.44;88.65
5283;BME280;15376;48.540;9.268;2023-05-19T09:48:35;97852.50;;;13.48;87.44
5283;BME280;15376;48.540;9.268;2023-05-19T09:51:06;97860.25;;;13.43;86.97
5283;BME280;15376;48.540;9.268;2023-05-19T09:53:33;97854.78;;;13.30;87.37
5283;BME280;15376;48.540;9.268;2023-05-19T09:56:00;97846.50;;;13.18;87.21
5283;BME280;15376;48.540;9.268;2023-05-19T09:58:30;97849.44;;;13.09;87.70
5283;BME280;15376;48.540;9.268;2023-05-19T10:00:59;97845.56;;;13.11;87.75
5283;BME280;15376;48.540;9.268;2023-05-19T10:03:25;97854.03;;;13.36;87.01
5283;BME280;15376;48.540;9.268;2023-05-19T10:05:52;97851.38;;;13.36;86.63
5283;BME280;15376;48.540;9.268;2023-05-19T10:08:18;97839.81;;;13.29;86.70
5283;BME280;15376;48.540;9.268;2023-05-19T10:10:47;97837.13;;;13.29;88.18
5283;BME280;15376;48.540;9.268;2023-05-19T10:13:12;97858.81;;;13.41;85.72
5283;BME280;15376;48.540;9.268;2023-05-19T10:15:40;97864.84;;;13.28;88.05
5283;BME280;15376;48.540;9.268;2023-05-19T10:18:08;97862.03;;;13.36;87.87
5283;BME280;15376;48.540;9.268;2023-05-19T10:20:34;97853.34;;;13.27;87.45
5283;BME280;15376;48.540;9.268;2023-05-19T10:23:01;97861.34;;;13.27;86.85
5283;BME280;15376;48.540;9.268;2023-05-19T10:25:31;97864.06;;;13.34;86.63
5283;BME280;15376;48.540;9.268;2023-05-19T10:28:12;97858.75;;;13.34;86.99
5283;BME280;15376;48.540;9.268;2023-05-19T10:30:40;97854.91;;;13.22;88.35
5283;BME280;15376;48.540;9.268;2023-05-19T10:33:09;97857.72;;;13.35;87.37
5283;BME280;15376;48.540;9.268;2023-05-19T10:41:30;97856.03;;;13.77;86.33
5283;BME280;15376;48.540;9.268;2023-05-19T10:46:32;97858.78;;;13.90;85.63
5283;BME280;15376;48.540;9.268;2023-05-19T10:48:58;97861.34;;;13.77;85.98
5283;BME280;15376;48.540;9.268;2023-05-19T10:51:30;97861.91;;;13.93;85.42
5283;BME280;15376;48.540;9.268;2023-05-19T10:53:56;97848.16;;;13.96;84.85
5283;BME280;15376;48.540;9.268;2023-05-19T10:56:30;97851.22;;;13.93;85.70
5283;BME280;15376;48.540;9.268;2023-05-19T10:59:01;97854.28;;;13.90;84.08
5283;BME280;15376;48.540;9.268;2023-05-19T11:01:33;97849.91;;;13.55;85.61
5283;BME280;15376;48.540;9.268;2023-05-19T11:04:07;97845.72;;;13.46;86.55
5283;BME280;15376;48.540;9.268;2023-05-19T11:06:39;97846.59;;;13.31;85.59
5283;BME280;15376;48.540;9.268;2023-05-19T11:09:13;97851.69;;;13.48;86.21
5283;BME280;15376;48.540;9.268;2023-05-19T11:11:50;97844.78;;;13.60;86.26
5283;BME280;15376;48.540;9.268;2023-05-19T11:14:17;97852.72;;;13.75;86.81
5283;BME280;15376;48.540;9.268;2023-05-19T11:16:50;97853.22;;;13.85;85.54
5283;BME280;15376;48.540;9.268;2023-05-19T11:19:25;97849.63;;;13.99;85.82
5283;BME280;15376;48.540;9.268;2023-05-19T11:21:52;97849.69;;;14.12;84.62
5283;BME280;15376;48.540;9.268;2023-05-19T11:24:35;97853.91;;;14.28;83.36
5283;BME280;15376;48.540;9.268;2023-05-19T11:27:26;97854.72;;;14.28;83.37
5283;BME280;15376;48.540;9.268;2023-05-19T11:29:54;97847.88;;;14.19;84.04
5283;BME280;15376;48.540;9.268;2023-05-19T11:32:21;97844.38;;;14.19;84.37
5283;BME280;15376;48.540;9.268;2023-05-19T11:34:47;97854.97;;;14.06;84.00
5283;BME280;15376;48.540;9.268;2023-05-19T11:37:14;97849.69;;;14.12;82.87
5283;BME280;15376;48.540;9.268;2023-05-19T11:39:40;97843.47;;;14.05;84.49
5283;BME280;15376;48.540;9.268;2023-05-19T11:42:07;97848.06;;;14.18;82.60
5283;BME280;15376;48.540;9.268;2023-05-19T11:44:34;97834.81;;;14.03;83.83
5283;BME280;15376;48.540;9.268;2023-05-19T11:46:59;97843.00;;;13.95;83.32
5283;BME280;15376;48.540;9.268;2023-05-19T11:49:27;97854.91;;;13.92;84.04
5283;BME280;15376;48.540;9.268;2023-05-19T11:51:53;97840.97;;;13.69;83.96
5283;BME280;15376;48.540;9.268;2023-05-19T11:54:18;97825.16;;;13.67;84.42
5283;BME280;15376;48.540;9.268;2023-05-19T11:56:44;97832.31;;;13.67;84.88
5283;BME280;15376;48.540;9.268;2023-05-19T11:59:10;97844.00;;;13.59;86.67
5283;BME280;15376;48.540;9.268;2023-05-19T12:01:35;97840.97;;;13.69;85.41
5283;BME280;15376;48.540;9.268;2023-05-19T12:04:01;97832.56;;;13.72;84.61
5283;BME280;15376;48.540;9.268;2023-05-19T12:06:30;97840.44;;;13.80;84.82
5283;BME280;15376;48.540;9.268;2023-05-19T12:08:55;97838.25;;;13.90;84.53
5283;BME280;15376;48.540;9.268;2023-05-19T12:11:22;97843.41;;;14.26;83.26
5283;BME280;15376;48.540;9.268;2023-05-19T12:13:48;97849.84;;;14.39;81.57
5283;BME280;15376;48.540;9.268;2023-05-19T12:16:21;97844.97;;;14.49;79.85
5283;BME280;15376;48.540;9.268;2023-05-19T12:18:46;97844.78;;;14.50;80.14
5283;BME280;15376;48.540;9.268;2023-05-19T12:21:12;97839.22;;;14.52;79.94
5283;BME280;15376;48.540;9.268;2023-05-19T12:23:37;97833.47;;;14.55;79.00
5283;BME280;15376;48.540;9.268;2023-05-19T12:26:03;97844.09;;;14.42;82.22
5283;BME280;15376;48.540;9.268;2023-05-19T12:28:29;97849.84;;;14.39;81.67
5283;BME280;15376;48.540;9.268;2023-05-19T12:30:55;97829.81;;;14.21;81.45
5283;BME280;15376;48.540;9.268;2023-05-19T12:33:23;97850.25;;;14.08;82.49
5283;BME280;15376;48.540;9.268;2023-05-19T12:35:48;97856.63;;;14.07;82.69
5283;BME280;15376;48.540;9.268;2023-05-19T12:38:14;97822.63;;;13.87;81.52
5283;BME280;15376;48.540;9.268;2023-05-19T12:40:40;97854.91;;;13.92;81.61
5283;BME280;15376;48.540;9.268;2023-05-19T12:43:06;97868.06;;;13.94;82.13
5283;BME280;15376;48.540;9.268;2023-05-19T12:45:38;97862.72;;;13.94;81.59
5283;BME280;15376;48.540;9.268;2023-05-19T12:48:04;97849.19;;;14.02;81.93
5283;BME280;15376;48.540;9.268;2023-05-19T12:50:31;97854.78;;;14.07;81.38
5283;BME280;15376;48.540;9.268;2023-05-19T12:52:57;97847.41;;;14.09;80.48
5283;BME280;15376;48.540;9.268;2023-05-19T12:55:24;97850.53;;;14.19;79.73
5283;BME280;15376;48.540;9.268;2023-05-19T12:57:56;97848.78;;;14.33;79.69
5283;BME280;15376;48.540;9.268;2023-05-19T13:00:22;97853.09;;;14.34;80.92
5283;BME280;15376;48.540;9.268;2023-05-19T13:03:01;97813.81;;;14.28;80.34
5283;BME280;15376;48.540;9.268;2023-05-19T13:05:36;97852.44;;;14.60;80.55
5283;BME280;15376;48.540;9.268;2023-05-19T13:08:07;97841.06;;;14.51;79.88
5283;BME280;15376;48.540;9.268;2023-05-19T13:10:40;97842.06;;;14.44;80.79
5283;BME280;15376;48.540;9.268;2023-05-19T13:13:14;97841.28;;;14.50;81.48
5283;BME280;15376;48.540;9.268;2023-05-19T13:15:44;97829.28;;;14.39;82.64
5283;BME280;15376;48.540;9.268;2023-05-19T13:18:11;97847.63;;;14.49;80.71
5283;BME280;15376;48.540;9.268;2023-05-19T13:20:38;97839.75;;;14.41;80.63
5283;BME280;15376;48.540;9.268;2023-05-19T13:23:04;97844.97;;;14.49;81.65
5283;BME280;15376;48.540;9.268;2023-05-19T13:25:33;97837.16;;;14.47;80.58
5283;BME280;15376;48.540;9.268;2023-05-19T13:28:08;97834.41;;;14.41;81.38
5283;BME280;15376;48.540;9.268;2023-05-19T13:30:35;97837.56;;;14.51;79.74
5283;BME280;15376;48.540;9.268;2023-05-19T13:33:01;97830.97;;;14.47;79.35
5283;BME280;15376;48.540;9.268;2023-05-19T13:35:26;97832.81;;;14.46;81.54